Terminal Aerodrome Forecast
Issued by NWS Cleveland, OH

Home | Current Version | Previous Version | Text Only | Print | Product List | Glossary On
Versions: 1 2 3 4 5 6 7 8 9 10 11 12 13 14 15
000
FTUS41 KCLE 302300
TAFYNG
TAF
KYNG 302327Z 3100/3124 32005KT P6SM SCT025 OVC045
     FM311800 21005KT 5SM -SHRA BR OVC025
     FM312200 VRB05KT 3SM BR VCSH OVC010=

USA.gov is the U.S. government's official web portal to all federal, state and local government web resources and services.